KMSPRJAA

Guest
Details From KMSP - Minneapolis St Paul Intl
To RJAA - Narita Intl
Flight Number -
Tags Generated
Created
Modified
Stats Distance 5,157 nm / 9,551 km
Max Altitude 0 ft / 0 m
Waypoints 8
Social Downloads 2
Likes 0
Share VATSIM

Download

Looking for another format? Having issues loading an existing format? Contact us
Advertisement - Login to hide

Notes

Generated

Route

KMSP R1416 YE03 QH AKMAX SURFU HUT13 RJAA

ID Type Via Altitude Latitude Longitude Leg Dist Tot Dist Heading (true) Name
O KMSP APT - 0 ft / 0 m 44.88790˚ -93.24246˚ - 0 nm - -
R1416 FIX - 0 ft / 0 m 47.97821˚ -97.40081˚ 253 nm 253 nm 319° / 316° -
YE03 FIX - 0 ft / 0 m 58.83347˚ -122.61680˚ 1102 nm 1355 nm 316° / 295° -
QH NDB - 0 ft / 0 m 60.17694˚ -128.84583˚ 206 nm 1561 nm 296° / 290° -
AKMAX FIX - 0 ft / 0 m 62.20769˚ -151.92926˚ 675 nm 2237 nm 290° / 270° -
SURFU FIX - 0 ft / 0 m 61.95894˚ -159.86253˚ 223 nm 2460 nm 270° / 263° -
HUT13 FIX - 0 ft / 0 m 36.15782˚ 140.68014˚ 2670 nm 5131 nm 263° / 215° -
O RJAA APT - 0 ft / 0 m 35.80271˚ 140.37991˚ 25 nm 5157 nm 214° / 214° -

Altitude Profile

Advertisement - Login to hide

Weather


0- 5 10 15 20 25 30 35+ Temperature / ° C

Clouds and Precipitation
Forecast for 2017-12-12 12:00 UTC. Updated an hour ago

Ground ~20,000 ft ~40,000 ft Winds

KMSP

Details ICAO KMSP (MSP)
Name Minneapolis St Paul Intl
Region United States
Timezone America/Chicago (UTC-6.0)
Stats Elevation 841 ft / 256 m (AMSL)
Location 44.881950° -93.222009°
Runways 4
Magnetic Variation 0.187° E

METAR

KMSP 120753Z 33010G19KT 10SM CLR M11/M14 A3024 RMK AO2 SLP255 T11111144

Decode

TAF

TAF KMSP 120525Z 1206/1312 31014KT P6SM SKC FM121500 29006KT P6SM BKN100 FM122000 24006KT P6SM BKN025 OVC050 FM130000 14005KT P6SM BKN050

Decode

Departure Runways

ID Width Length Bearing (true) Bearing (mag) Surface Threshold Offset Overrun Length
04 151 ft / 46 m 10,996 ft / 3,352 m 44.90° 44.71° Concrete 1,549 ft / 472 m 0 ft / 0 m
12L 151 ft / 46 m 8,187 ft / 2,495 m 121.41° 121.22° Asphalt 0 ft / 0 m 400 ft / 122 m
12R 200 ft / 61 m 9,984 ft / 3,043 m 121.43° 121.24° Asphalt 0 ft / 0 m 1,201 ft / 366 m
17 151 ft / 46 m 8,008 ft / 2,441 m 169.40° 169.21° Concrete 0 ft / 0 m 354 ft / 108 m
22 151 ft / 46 m 10,996 ft / 3,352 m 224.92° 224.73° Concrete 988 ft / 301 m 427 ft / 130 m
30L 200 ft / 61 m 9,984 ft / 3,043 m 301.45° 301.26° Asphalt 0 ft / 0 m 791 ft / 241 m
30R 151 ft / 46 m 8,187 ft / 2,495 m 301.43° 301.24° Asphalt 0 ft / 0 m 400 ft / 122 m
35 151 ft / 46 m 8,008 ft / 2,441 m 349.40° 349.21° Concrete 0 ft / 0 m 1,020 ft / 311 m

RJAA

Details ICAO RJAA (NRT)
Name NARITA INTL
Region Japan
Timezone Asia/Tokyo (UTC+9.0)
Stats Elevation 141 ft / 43 m (AMSL)
Location 35.776552° 140.382770°
Runways 2
Magnetic Variation 7.405° W

METAR

RJAA 120800Z 20003KT 9999 FEW030 BKN/// 05/M05 Q1011 BECMG TL0900 30005KT

Decode

TAF

TAF RJAA 120505Z 1206/1312 30006KT 9999 FEW030= TAF RJBB 120505Z 1206/1312 29020KT 9999 FEW020 SCT045

Decode

Destination Runways

ID Width Length Bearing (true) Bearing (mag) Surface Threshold Offset Overrun Length
16L 196 ft / 60 m 7,162 ft / 2,183 m 149.61° 157.01° Asphalt 190 ft / 58 m 0 ft / 0 m
16R 196 ft / 60 m 13,142 ft / 4,006 m 149.61° 157.01° Asphalt 0 ft / 0 m 410 ft / 125 m
34L 196 ft / 60 m 13,142 ft / 4,006 m 329.62° 337.02° Asphalt 0 ft / 0 m 415 ft / 126 m
34R 196 ft / 60 m 7,162 ft / 2,183 m 329.62° 337.02° Asphalt 190 ft / 58 m 0 ft / 0 m

Approach Navaids

Runway Type Ident Frequency Range Bearing (true) Bearing (mag) Slope Elevation
16L Localiser ITM 110.70 MHz 18 nm / 33 km 149.62° 157.02° - 141 ft / 43 m (AMSL)
16L Glidescope ITM 110.70 MHz 10 nm / 19 km 149.62° 157.02° 3.00° 141 ft / 43 m (AMSL)
16L DME ITM 110.70 MHz 18 nm / 33 km - - - 145 ft / 44 m (AMSL)
16R Localiser IKF 111.50 MHz 18 nm / 33 km 149.63° 157.03° - 141 ft / 43 m (AMSL)
16R Glidescope IKF 111.50 MHz 10 nm / 19 km 149.62° 157.02° 3.00° 141 ft / 43 m (AMSL)
16R DME IKF 111.50 MHz 18 nm / 33 km - - - 145 ft / 44 m (AMSL)
34L Localiser IYQ 111.90 MHz 18 nm / 33 km 329.61° 337.01° - 141 ft / 43 m (AMSL)
34L Glidescope IYQ 111.90 MHz 10 nm / 19 km 329.62° 337.02° 3.00° 141 ft / 43 m (AMSL)
34L DME IYQ 111.90 MHz 18 nm / 33 km - - - 153 ft / 47 m (AMSL)
34R Localiser ITJ 110.90 MHz 18 nm / 33 km 329.62° 337.02° - 141 ft / 43 m (AMSL)
34R Glidescope ITJ 110.90 MHz 10 nm / 19 km 329.62° 337.02° 3.00° 141 ft / 43 m (AMSL)
34R DME ITJ 110.90 MHz 18 nm / 33 km - - - 148 ft / 45 m (AMSL)

Popular Alternatives